createdAt,value
2023-05-25T00:00:16.829Z,36.32
2023-05-25T00:01:16.847Z,36.31
2023-05-25T00:02:16.990Z,36.30
2023-05-25T00:03:17.154Z,36.34
2023-05-25T00:04:17.561Z,36.33
2023-05-25T00:05:17.152Z,36.31
2023-05-25T00:06:17.220Z,36.32
2023-05-25T00:07:17.283Z,36.30
2023-05-25T00:08:17.361Z,36.33
2023-05-25T00:09:17.436Z,36.30
2023-05-25T00:10:17.501Z,36.30
2023-05-25T00:11:17.592Z,36.29
2023-05-25T00:12:17.673Z,36.30
2023-05-25T00:13:17.753Z,36.30
2023-05-25T00:14:17.822Z,36.29
2023-05-25T00:15:17.896Z,36.31
2023-05-25T00:16:17.961Z,36.29
2023-05-25T00:17:18.071Z,36.28
2023-05-25T00:18:18.125Z,36.29
2023-05-25T00:19:18.192Z,36.29
2023-05-25T00:20:18.329Z,36.29
2023-05-25T00:21:18.446Z,36.27
2023-05-25T00:22:18.423Z,36.28
2023-05-25T00:23:18.502Z,36.28
2023-05-25T00:24:18.562Z,36.28
2023-05-25T00:25:18.629Z,36.27
2023-05-25T00:26:18.727Z,36.28
2023-05-25T00:27:18.786Z,36.26
2023-05-25T00:28:18.901Z,36.28
2023-05-25T00:29:18.943Z,36.27
2023-05-25T00:30:19.026Z,36.26
2023-05-25T00:31:19.222Z,36.28
2023-05-25T00:32:19.174Z,36.27
2023-05-25T00:33:19.250Z,36.28
2023-05-25T00:34:19.322Z,36.26
2023-05-25T00:35:19.408Z,36.27
2023-05-25T00:36:19.483Z,36.27
2023-05-25T00:37:19.566Z,36.23
2023-05-25T00:38:19.651Z,36.25
2023-05-25T00:39:19.737Z,36.25
2023-05-25T00:40:19.810Z,36.26
2023-05-25T00:41:19.882Z,36.25
2023-05-25T00:42:19.955Z,36.27
2023-05-25T00:43:20.045Z,36.25
2023-05-25T00:44:20.113Z,36.25
2023-05-25T00:45:20.210Z,36.26
2023-05-25T00:46:20.299Z,36.24
2023-05-25T00:47:20.347Z,36.25
2023-05-25T00:48:20.423Z,36.25
2023-05-25T00:49:20.431Z,36.26
2023-05-25T00:50:20.445Z,36.24
2023-05-25T00:51:20.446Z,36.24
2023-05-25T00:52:20.459Z,36.25
2023-05-25T00:53:20.488Z,36.24
2023-05-25T00:54:20.484Z,36.23
2023-05-25T00:55:20.491Z,36.25
2023-05-25T00:56:20.506Z,36.24
2023-05-25T00:57:20.522Z,36.25
2023-05-25T00:58:20.541Z,36.22
2023-05-25T00:59:20.546Z,36.21
2023-05-25T01:00:20.553Z,36.22
2023-05-25T01:01:20.569Z,36.23
2023-05-25T01:02:20.631Z,36.24
2023-05-25T01:03:20.836Z,36.22
2023-05-25T01:04:20.588Z,36.23
2023-05-25T01:05:20.598Z,36.25
2023-05-25T01:06:20.602Z,36.21
2023-05-25T01:07:20.603Z,36.23
2023-05-25T01:08:20.616Z,36.21
2023-05-25T01:09:20.676Z,36.21
2023-05-25T01:10:20.752Z,36.21
2023-05-25T01:11:20.841Z,36.22
2023-05-25T01:12:20.936Z,36.21
2023-05-25T01:13:21.012Z,36.22
2023-05-25T01:14:21.058Z,36.20
2023-05-25T01:15:21.134Z,36.21
2023-05-25T01:16:21.239Z,36.21
2023-05-25T01:17:21.328Z,36.20
2023-05-25T01:18:21.374Z,36.20
2023-05-25T01:19:21.452Z,36.20
2023-05-25T01:20:21.544Z,36.22
2023-05-25T01:21:21.608Z,36.22
2023-05-25T01:22:21.697Z,36.19
2023-05-25T01:23:21.775Z,36.22
2023-05-25T01:24:21.852Z,36.19
2023-05-25T01:25:22.052Z,36.19
2023-05-25T01:26:22.014Z,36.20
2023-05-25T01:27:22.093Z,36.18
2023-05-25T01:28:22.113Z,36.18
2023-05-25T01:29:22.123Z,36.18
2023-05-25T01:30:22.141Z,36.21
2023-05-25T01:31:22.207Z,36.20
2023-05-25T01:32:22.210Z,36.21
2023-05-25T01:33:22.193Z,36.21
2023-05-25T01:34:22.211Z,36.19
2023-05-25T01:35:22.283Z,36.20
2023-05-25T01:36:22.243Z,36.19
2023-05-25T01:37:22.247Z,36.16
2023-05-25T01:38:22.272Z,36.16
2023-05-25T01:39:22.281Z,36.16
2023-05-25T01:40:22.292Z,36.14
2023-05-25T01:41:22.313Z,36.14
2023-05-25T01:42:22.329Z,36.14
2023-05-25T01:43:22.377Z,36.14
2023-05-25T01:44:22.451Z,36.13
2023-05-25T01:45:22.534Z,36.15
2023-05-25T01:46:22.677Z,36.15
2023-05-25T01:47:22.695Z,36.14
2023-05-25T01:48:22.776Z,36.12
2023-05-25T01:49:22.839Z,36.14
2023-05-25T01:50:22.917Z,36.13
2023-05-25T01:51:22.995Z,36.12
2023-05-25T01:52:23.128Z,36.13
2023-05-25T01:53:23.162Z,36.14
2023-05-25T01:54:23.259Z,36.13
2023-05-25T01:55:23.319Z,36.13
2023-05-25T01:56:23.420Z,36.14
2023-05-25T01:57:23.476Z,36.12
2023-05-25T01:58:23.565Z,36.11
2023-05-25T01:59:23.636Z,36.12
2023-05-25T02:00:23.708Z,36.13
2023-05-25T02:01:23.838Z,36.10
2023-05-25T02:02:23.891Z,36.12
2023-05-25T02:03:23.944Z,36.10
2023-05-25T02:04:24.048Z,36.12
2023-05-25T02:05:24.086Z,36.12
2023-05-25T02:06:24.165Z,36.12
2023-05-25T02:07:24.246Z,36.11
2023-05-25T02:08:24.336Z,36.10
2023-05-25T02:09:24.407Z,36.10
2023-05-25T02:10:24.486Z,36.08
2023-05-25T02:11:24.568Z,36.10
2023-05-25T02:12:24.586Z,36.11
2023-05-25T02:13:24.590Z,36.09
2023-05-25T02:14:24.594Z,36.11
2023-05-25T02:15:24.598Z,36.11
2023-05-25T02:16:24.677Z,36.10
2023-05-25T02:17:24.629Z,36.10
2023-05-25T02:18:24.608Z,36.11
2023-05-25T02:19:24.611Z,36.08
2023-05-25T02:20:24.670Z,36.07
2023-05-25T02:21:24.622Z,36.08
2023-05-25T02:22:24.641Z,36.12
2023-05-25T02:23:24.637Z,36.09
2023-05-25T02:24:24.674Z,36.09
2023-05-25T02:25:24.648Z,36.07
2023-05-25T02:26:24.642Z,36.06
2023-05-25T02:27:24.645Z,36.08
2023-05-25T02:28:24.651Z,36.08
2023-05-25T02:29:24.658Z,36.07
2023-05-25T02:30:24.677Z,36.08
2023-05-25T02:31:24.735Z,36.06
2023-05-25T02:32:24.852Z,36.06
2023-05-25T02:33:24.895Z,36.05
2023-05-25T02:34:25.000Z,36.04
2023-05-25T02:35:25.048Z,36.05
2023-05-25T02:36:25.131Z,36.08
2023-05-25T02:37:25.206Z,36.05
2023-05-25T02:38:25.292Z,36.08
2023-05-25T02:39:25.374Z,36.07
2023-05-25T02:40:25.456Z,36.06
2023-05-25T02:41:25.519Z,36.04
2023-05-25T02:42:25.640Z,36.06
2023-05-25T02:43:25.686Z,36.05
2023-05-25T02:44:25.762Z,36.07
2023-05-25T02:45:25.838Z,36.04
2023-05-25T02:46:25.928Z,36.06
2023-05-25T02:47:26.017Z,36.05
2023-05-25T02:48:26.077Z,36.06
2023-05-25T02:49:26.137Z,36.03
2023-05-25T02:50:26.235Z,36.03
2023-05-25T02:51:26.301Z,36.04
2023-05-25T02:52:26.385Z,36.05
2023-05-25T02:53:26.463Z,36.03
2023-05-25T02:54:26.546Z,36.04
2023-05-25T02:55:26.634Z,36.03
2023-05-25T02:56:26.700Z,36.02
2023-05-25T02:57:26.789Z,36.03
2023-05-25T02:58:26.876Z,36.04
2023-05-25T02:59:26.947Z,36.03
2023-05-25T03:00:27.023Z,36.01
2023-05-25T03:01:27.089Z,36.02
2023-05-25T03:02:27.088Z,36.03
2023-05-25T03:03:27.115Z,36.01
2023-05-25T03:04:27.089Z,36.00
2023-05-25T03:05:27.108Z,36.01
2023-05-25T03:06:27.142Z,36.00
2023-05-25T03:07:27.169Z,36.02
2023-05-25T03:08:27.191Z,36.01
2023-05-25T03:09:27.195Z,36.00
2023-05-25T03:10:27.218Z,36.02
2023-05-25T03:11:27.238Z,35.98
2023-05-25T03:12:27.251Z,35.99
2023-05-25T03:13:27.272Z,36.01
2023-05-25T03:14:27.280Z,35.98
2023-05-25T03:15:27.312Z,35.99
2023-05-25T03:16:27.355Z,35.98
2023-05-25T03:17:27.377Z,35.98
2023-05-25T03:18:27.358Z,35.99
2023-05-25T03:19:27.370Z,35.99
2023-05-25T03:20:27.437Z,35.99
2023-05-25T03:21:27.395Z,35.97
2023-05-25T03:22:27.420Z,35.97
2023-05-25T03:23:27.428Z,35.97
2023-05-25T03:24:27.444Z,35.99
2023-05-25T03:25:27.449Z,35.97
2023-05-25T03:26:27.483Z,35.98
2023-05-25T03:27:27.564Z,35.97
2023-05-25T03:28:27.640Z,35.96
2023-05-25T03:29:27.713Z,35.96
2023-05-25T03:30:27.788Z,35.99
2023-05-25T03:31:27.915Z,35.97
2023-05-25T03:32:27.976Z,35.98
2023-05-25T03:33:27.964Z,35.98
2023-05-25T03:34:27.978Z,35.96
2023-05-25T03:35:27.991Z,35.98
2023-05-25T03:36:27.992Z,35.98
2023-05-25T03:37:28.005Z,35.98
2023-05-25T03:38:28.039Z,35.94
2023-05-25T03:39:28.029Z,35.96
2023-05-25T03:40:28.039Z,35.95
2023-05-25T03:41:28.053Z,35.95
2023-05-25T03:42:28.077Z,35.95
2023-05-25T03:43:28.094Z,35.96
2023-05-25T03:44:28.124Z,35.97
2023-05-25T03:45:28.123Z,35.96
2023-05-25T03:46:28.242Z,35.92
2023-05-25T03:47:28.182Z,35.95
2023-05-25T03:48:28.205Z,35.93
2023-05-25T03:49:28.254Z,35.91
2023-05-25T03:50:28.346Z,35.92
2023-05-25T03:51:28.429Z,35.93
2023-05-25T03:52:28.511Z,35.95
2023-05-25T03:53:28.599Z,35.94
2023-05-25T03:54:28.680Z,35.94
2023-05-25T03:55:28.756Z,35.90
2023-05-25T03:56:28.849Z,35.92
2023-05-25T03:57:28.946Z,35.91
2023-05-25T03:58:29.017Z,35.87
2023-05-25T03:59:29.101Z,35.89
2023-05-25T04:00:29.185Z,35.89
2023-05-25T04:01:29.261Z,35.91
2023-05-25T04:02:29.399Z,35.89
2023-05-25T04:03:29.592Z,35.88
2023-05-25T04:04:29.590Z,35.88
2023-05-25T04:05:29.583Z,35.86
2023-05-25T04:06:29.659Z,35.86
2023-05-25T04:07:29.738Z,35.82
2023-05-25T04:08:29.825Z,35.85
2023-05-25T04:09:29.885Z,35.85
2023-05-25T04:10:29.981Z,35.87
2023-05-25T04:11:30.063Z,35.86
2023-05-25T04:12:30.143Z,35.87
2023-05-25T04:13:30.230Z,35.85
2023-05-25T04:14:30.310Z,35.86
2023-05-25T04:15:30.421Z,35.84
2023-05-25T04:16:30.507Z,35.86
2023-05-25T04:17:30.675Z,35.84
2023-05-25T04:18:30.668Z,35.82
2023-05-25T04:19:30.769Z,35.83
2023-05-25T04:20:30.859Z,35.82
2023-05-25T04:21:30.937Z,35.82
2023-05-25T04:22:31.013Z,35.81
2023-05-25T04:23:31.106Z,35.79
2023-05-25T04:24:31.114Z,35.81
2023-05-25T04:25:31.129Z,35.78
2023-05-25T04:26:31.146Z,35.80
2023-05-25T04:27:31.167Z,35.78
2023-05-25T04:28:31.188Z,35.78
2023-05-25T04:29:31.181Z,35.76
2023-05-25T04:30:31.198Z,35.77
2023-05-25T04:31:31.263Z,35.76
2023-05-25T04:32:31.232Z,35.76
2023-05-25T04:33:31.240Z,35.76
2023-05-25T04:34:31.279Z,35.75
2023-05-25T04:35:31.349Z,35.74
2023-05-25T04:36:31.437Z,35.74
2023-05-25T04:37:31.517Z,35.74
2023-05-25T04:38:31.606Z,35.73
2023-05-25T04:39:31.676Z,35.74
2023-05-25T04:40:31.763Z,35.72
2023-05-25T04:41:31.848Z,35.74
2023-05-25T04:42:31.934Z,35.74
2023-05-25T04:43:32.023Z,35.73
2023-05-25T04:44:32.106Z,35.72
2023-05-25T04:45:32.246Z,35.72
2023-05-25T04:46:32.358Z,35.70
2023-05-25T04:47:32.393Z,35.72
2023-05-25T04:48:32.446Z,35.69
2023-05-25T04:49:32.451Z,35.70
2023-05-25T04:50:32.483Z,35.70
2023-05-25T04:51:32.524Z,35.70
2023-05-25T04:52:32.513Z,35.68
2023-05-25T04:53:32.539Z,35.68
2023-05-25T04:54:32.557Z,35.67
2023-05-25T04:55:32.569Z,35.66
2023-05-25T04:56:32.591Z,35.66
2023-05-25T04:57:32.608Z,35.67
2023-05-25T04:58:32.636Z,35.67
2023-05-25T04:59:32.703Z,35.66
2023-05-25T05:00:32.804Z,35.65
2023-05-25T05:01:32.899Z,35.64
2023-05-25T05:02:32.984Z,35.63
2023-05-25T05:03:33.140Z,35.64
2023-05-25T05:04:33.123Z,35.63
2023-05-25T05:05:33.219Z,35.62
2023-05-25T05:06:33.275Z,35.62
2023-05-25T05:07:33.358Z,35.61
2023-05-25T05:08:33.458Z,35.58
2023-05-25T05:09:33.504Z,35.61
2023-05-25T05:10:33.589Z,35.61
2023-05-25T05:11:33.722Z,35.61
2023-05-25T05:12:33.759Z,35.58
2023-05-25T05:13:33.832Z,35.61
2023-05-25T05:14:33.925Z,35.59
2023-05-25T05:15:33.998Z,35.59
2023-05-25T05:16:34.193Z,35.60
2023-05-25T05:17:34.235Z,35.56
2023-05-25T05:18:34.177Z,35.58
2023-05-25T05:19:34.199Z,35.57
2023-05-25T05:20:34.268Z,35.56
2023-05-25T05:21:34.251Z,35.57
2023-05-25T05:22:34.253Z,35.53
2023-05-25T05:23:34.256Z,35.55
2023-05-25T05:24:34.289Z,35.57
2023-05-25T05:25:34.282Z,35.55
2023-05-25T05:26:51.952Z,35.54
2023-05-25T05:27:35.309Z,35.55
2023-05-25T05:28:34.323Z,35.56
2023-05-25T05:29:34.352Z,35.56
2023-05-25T05:30:34.336Z,35.55
2023-05-25T05:31:34.377Z,35.56
2023-05-25T05:32:34.428Z,35.55
2023-05-25T05:33:34.466Z,35.53
2023-05-25T05:34:34.439Z,35.53
2023-05-25T05:35:34.456Z,35.56
2023-05-25T05:36:45.171Z,35.71
2023-05-25T05:37:35.525Z,36.07
2023-05-25T05:38:34.500Z,36.32
2023-05-25T05:39:34.556Z,36.51
2023-05-25T05:40:34.496Z,36.65
2023-05-25T05:41:34.526Z,36.92
2023-05-25T05:42:34.543Z,36.93
2023-05-25T05:43:34.577Z,36.97
2023-05-25T05:44:34.585Z,36.97
2023-05-25T05:45:34.604Z,37.08
2023-05-25T05:46:34.653Z,37.21
2023-05-25T05:47:34.757Z,37.37
2023-05-25T05:48:34.783Z,37.52
2023-05-25T05:49:34.906Z,37.66
2023-05-25T05:50:34.928Z,37.68
2023-05-25T05:51:35.020Z,37.82
2023-05-25T05:52:35.085Z,37.80
2023-05-25T05:53:35.160Z,37.91
2023-05-25T05:54:35.224Z,37.71
2023-05-25T05:55:35.297Z,37.35
2023-05-25T05:56:35.387Z,37.04
2023-05-25T05:57:35.492Z,36.94
2023-05-25T05:58:35.533Z,36.75
2023-05-25T05:59:35.607Z,36.77
2023-05-25T06:00:35.713Z,36.69
2023-05-25T06:01:35.720Z,36.54
2023-05-25T06:02:35.898Z,36.31
2023-05-25T06:03:35.891Z,36.41
2023-05-25T06:04:35.924Z,36.48
2023-05-25T06:05:36.094Z,36.45
2023-05-25T06:06:36.086Z,36.46
2023-05-25T06:07:36.159Z,36.41
2023-05-25T06:08:36.230Z,36.37
2023-05-25T06:09:36.297Z,36.34
2023-05-25T06:10:36.392Z,36.23
2023-05-25T06:11:36.450Z,36.18
2023-05-25T06:12:36.550Z,36.40
2023-05-25T06:13:36.641Z,36.49
2023-05-25T06:14:36.692Z,36.39
2023-05-25T06:15:36.777Z,36.23
2023-05-25T06:16:36.979Z,36.25
2023-05-25T06:17:36.964Z,36.17
2023-05-25T06:18:37.025Z,36.21
2023-05-25T06:19:37.114Z,36.14
2023-05-25T06:20:37.230Z,36.02
2023-05-25T06:21:37.236Z,35.99
2023-05-25T06:22:37.310Z,36.06
2023-05-25T06:23:37.404Z,36.05
2023-05-25T06:24:37.497Z,36.07
2023-05-25T06:25:37.562Z,36.10
2023-05-25T06:26:37.669Z,36.05
2023-05-25T06:27:37.743Z,36.20
2023-05-25T06:28:37.830Z,36.26
2023-05-25T06:29:37.880Z,36.31
2023-05-25T06:30:37.970Z,36.52
2023-05-25T06:31:38.088Z,36.70
2023-05-25T06:32:38.038Z,36.69
2023-05-25T06:33:37.989Z,36.77
2023-05-25T06:34:38.324Z,36.79
2023-05-25T06:35:38.001Z,36.74
2023-05-25T06:36:37.997Z,36.81
2023-05-25T06:37:38.037Z,36.81
2023-05-25T06:38:38.043Z,36.83
2023-05-25T06:39:38.031Z,36.91
2023-05-25T06:40:38.032Z,36.96
2023-05-25T06:41:38.037Z,36.97
2023-05-25T06:42:38.074Z,36.58
2023-05-25T06:43:38.076Z,36.25
2023-05-25T06:44:38.117Z,36.43
2023-05-25T06:45:38.233Z,36.59
2023-05-25T06:46:38.292Z,36.75
2023-05-25T06:47:38.313Z,36.80
2023-05-25T06:48:38.318Z,36.83
2023-05-25T06:49:38.314Z,36.86
2023-05-25T06:50:38.307Z,36.95
2023-05-25T06:51:38.333Z,36.97
2023-05-25T06:52:38.327Z,36.91
2023-05-25T06:53:38.384Z,36.93
2023-05-25T06:54:38.349Z,36.93
2023-05-25T06:55:38.355Z,36.95
2023-05-25T06:56:38.354Z,37.02
2023-05-25T06:57:38.369Z,36.96
2023-05-25T06:58:38.368Z,37.03
2023-05-25T06:59:38.382Z,37.02
2023-05-25T07:00:38.400Z,36.98
2023-05-25T07:01:38.427Z,36.53
2023-05-25T07:02:38.406Z,36.13
2023-05-25T07:03:38.402Z,36.01
2023-05-25T07:04:38.431Z,35.83
2023-05-25T07:05:38.481Z,35.93
2023-05-25T07:06:38.517Z,35.95
2023-05-25T07:07:38.562Z,35.61
2023-05-25T07:08:38.597Z,35.31
2023-05-25T07:09:38.629Z,35.27
2023-05-25T07:10:38.676Z,35.30
2023-05-25T07:11:38.682Z,35.17
2023-05-25T07:12:38.708Z,35.07
2023-05-25T07:13:38.712Z,34.93
2023-05-25T07:14:38.716Z,34.77
2023-05-25T07:15:38.746Z,34.86
2023-05-25T07:16:38.879Z,35.19
2023-05-25T07:17:38.811Z,35.43
2023-05-25T07:18:38.771Z,35.46
2023-05-25T07:19:38.785Z,35.53
2023-05-25T07:20:38.851Z,35.70
2023-05-25T07:21:38.812Z,35.75
2023-05-25T07:22:38.819Z,35.78
2023-05-25T07:23:38.836Z,35.90
2023-05-25T07:24:38.879Z,35.87
2023-05-25T07:25:38.866Z,36.02
2023-05-25T07:26:38.875Z,35.82
2023-05-25T07:27:38.887Z,35.49
2023-05-25T07:28:38.898Z,35.44
2023-05-25T07:29:38.902Z,35.40
2023-05-25T07:30:38.915Z,35.34
2023-05-25T07:31:38.969Z,35.33
2023-05-25T07:32:39.011Z,35.30
2023-05-25T07:33:39.052Z,35.37
2023-05-25T07:34:39.092Z,35.35
2023-05-25T07:35:39.154Z,35.51
2023-05-25T07:36:39.210Z,35.66
2023-05-25T07:37:39.258Z,35.81
2023-05-25T07:38:39.261Z,35.87
2023-05-25T07:39:39.281Z,35.57
2023-05-25T07:40:39.305Z,35.48
2023-05-25T07:41:39.282Z,35.84
2023-05-25T07:42:39.313Z,35.74
2023-05-25T07:43:39.313Z,35.70
2023-05-25T07:44:39.309Z,35.75
2023-05-25T07:45:39.308Z,35.72
2023-05-25T07:46:39.366Z,35.73
2023-05-25T07:47:39.369Z,35.70
2023-05-25T07:48:39.353Z,35.67
2023-05-25T07:49:39.348Z,35.69
2023-05-25T07:50:39.352Z,35.63
2023-05-25T07:51:39.362Z,35.61
2023-05-25T07:52:39.371Z,35.59
2023-05-25T07:53:39.387Z,35.61
2023-05-25T07:54:39.426Z,35.59
2023-05-25T07:55:39.391Z,35.56
2023-05-25T07:56:39.400Z,35.52
2023-05-25T07:57:39.401Z,35.54
2023-05-25T07:58:39.428Z,35.55
2023-05-25T07:59:39.411Z,35.50
2023-05-25T08:00:39.433Z,35.47
2023-05-25T08:01:39.474Z,35.49
2023-05-25T08:02:39.538Z,35.48
2023-05-25T08:03:48.931Z,35.47
2023-05-25T08:04:40.562Z,35.51
2023-05-25T08:05:39.481Z,35.50
2023-05-25T08:06:39.495Z,35.50
2023-05-25T08:07:40.764Z,35.49
2023-05-25T08:08:39.527Z,35.47
2023-05-25T08:09:39.529Z,35.48
2023-05-25T08:10:39.524Z,35.45
2023-05-25T08:11:39.533Z,35.48
2023-05-25T08:12:48.026Z,35.46
2023-05-25T08:13:40.562Z,35.46
2023-05-25T08:14:39.564Z,35.46
2023-05-25T08:15:39.572Z,35.39
2023-05-25T08:16:39.636Z,35.27
2023-05-25T08:17:39.611Z,35.31
2023-05-25T08:18:39.601Z,35.42
2023-05-25T08:19:39.609Z,35.50
2023-05-25T08:20:39.778Z,35.25
2023-05-25T08:21:39.620Z,35.18
2023-05-25T08:22:39.674Z,35.20
2023-05-25T08:23:39.648Z,35.22
2023-05-25T08:24:39.645Z,35.26
2023-05-25T08:25:39.647Z,35.32
2023-05-25T08:26:52.869Z,35.36
2023-05-25T08:27:40.671Z,35.36
2023-05-25T08:28:39.692Z,35.37
2023-05-25T08:29:39.710Z,35.33
2023-05-25T08:30:39.758Z,35.38
2023-05-25T08:31:39.746Z,35.40
2023-05-25T08:32:39.739Z,35.43
2023-05-25T08:33:39.729Z,35.46
2023-05-25T08:34:39.738Z,35.59
2023-05-25T08:35:39.732Z,35.58
2023-05-25T08:36:39.757Z,35.59
2023-05-25T08:37:39.769Z,35.66
2023-05-25T08:38:39.772Z,35.84
2023-05-25T08:39:39.805Z,35.86
2023-05-25T08:40:39.848Z,35.83
2023-05-25T08:41:39.911Z,35.79
2023-05-25T08:42:39.956Z,35.70
2023-05-25T08:43:40.016Z,35.70
2023-05-25T08:44:40.094Z,35.74
2023-05-25T08:45:49.337Z,35.84
2023-05-25T08:46:41.152Z,35.81
2023-05-25T08:47:40.183Z,35.76
2023-05-25T08:48:42.226Z,35.75
2023-05-25T08:49:40.446Z,35.72
2023-05-25T08:50:40.366Z,35.66
2023-05-25T08:51:40.443Z,35.65
2023-05-25T08:52:40.483Z,35.64
2023-05-25T08:53:40.583Z,35.45
2023-05-25T08:54:40.633Z,35.41
2023-05-25T08:55:40.683Z,35.48
2023-05-25T08:56:40.761Z,35.30
2023-05-25T08:57:40.802Z,35.29
2023-05-25T08:58:40.890Z,35.31
2023-05-25T08:59:40.965Z,35.33
2023-05-25T09:00:41.007Z,35.34
2023-05-25T09:01:41.123Z,35.32
2023-05-25T09:02:41.172Z,35.25
2023-05-25T09:03:41.275Z,35.15
2023-05-25T09:04:41.321Z,35.19
2023-05-25T09:05:41.345Z,35.09
2023-05-25T09:06:41.327Z,35.06
2023-05-25T09:07:41.347Z,35.08
2023-05-25T09:08:41.345Z,35.12
2023-05-25T09:09:41.372Z,35.10
2023-05-25T09:10:41.365Z,35.11
2023-05-25T09:11:43.529Z,35.13
2023-05-25T09:12:41.392Z,35.14
2023-05-25T09:13:41.414Z,35.18
2023-05-25T09:14:41.444Z,35.11
2023-05-25T09:15:41.584Z,35.12
2023-05-25T09:16:41.464Z,35.14
2023-05-25T09:17:41.663Z,35.11
2023-05-25T09:18:41.490Z,35.16
2023-05-25T09:19:41.519Z,35.22
2023-05-25T09:20:44.248Z,35.20
2023-05-25T09:21:41.539Z,35.23
2023-05-25T09:22:41.545Z,35.24
2023-05-25T09:23:41.559Z,35.27
2023-05-25T09:24:41.568Z,35.21
2023-05-25T09:25:41.623Z,35.16
2023-05-25T09:26:41.606Z,35.17
2023-05-25T09:27:41.604Z,35.12
2023-05-25T09:28:41.623Z,35.22
2023-05-25T09:29:41.629Z,34.90
2023-05-25T09:30:41.750Z,34.83
2023-05-25T09:31:41.716Z,34.71
2023-05-25T09:32:41.709Z,34.54
2023-05-25T09:33:41.683Z,34.63
2023-05-25T09:34:41.719Z,34.65
2023-05-25T09:35:41.691Z,34.67
2023-05-25T09:36:41.744Z,34.66
2023-05-25T09:37:41.889Z,34.67
2023-05-25T09:38:42.170Z,34.66
2023-05-25T09:39:41.854Z,34.82
2023-05-25T09:40:41.782Z,34.82
2023-05-25T09:41:41.761Z,35.14
2023-05-25T09:42:41.831Z,35.46
2023-05-25T09:43:46.961Z,35.25
2023-05-25T09:44:42.999Z,35.28
2023-05-25T09:45:41.938Z,35.54
2023-05-25T09:46:41.992Z,35.99
2023-05-25T09:47:42.074Z,35.90
2023-05-25T09:48:41.950Z,35.72
2023-05-25T09:49:41.994Z,35.72
2023-05-25T09:50:42.084Z,35.76
2023-05-25T09:51:41.999Z,35.75
2023-05-25T09:52:42.013Z,35.72
2023-05-25T09:53:41.987Z,35.69
2023-05-25T09:54:41.993Z,35.75
2023-05-25T09:55:53.368Z,35.89
2023-05-25T09:56:43.013Z,35.92
2023-05-25T09:57:42.027Z,35.93
2023-05-25T09:58:42.028Z,35.92
2023-05-25T09:59:42.033Z,35.94
2023-05-25T10:00:42.090Z,35.96
2023-05-25T10:01:44.002Z,36.01
2023-05-25T10:02:42.088Z,36.04
2023-05-25T10:03:43.786Z,36.02
2023-05-25T10:04:43.108Z,35.98
2023-05-25T10:05:42.056Z,36.03
2023-05-25T10:06:42.083Z,36.09
2023-05-25T10:07:42.062Z,36.08
2023-05-25T10:08:42.077Z,36.01
2023-05-25T10:09:42.076Z,36.05
2023-05-25T10:10:42.094Z,36.04
2023-05-25T10:11:42.081Z,36.07
2023-05-25T10:12:42.097Z,36.13
2023-05-25T10:13:42.114Z,36.14
2023-05-25T10:14:42.118Z,36.10
2023-05-25T10:15:42.150Z,36.07
2023-05-25T10:16:42.130Z,36.08
2023-05-25T10:17:42.153Z,36.14
2023-05-25T10:18:42.139Z,36.05
2023-05-25T10:19:42.163Z,36.00
2023-05-25T10:20:42.224Z,36.07
2023-05-25T10:21:42.163Z,36.03
2023-05-25T10:22:42.189Z,35.99
2023-05-25T10:23:42.289Z,35.94
2023-05-25T10:24:42.288Z,35.91
2023-05-25T10:25:42.313Z,35.91
2023-05-25T10:26:42.345Z,35.85
2023-05-25T10:27:42.376Z,35.86
2023-05-25T10:28:42.400Z,35.87
2023-05-25T10:29:42.438Z,35.77
2023-05-25T10:30:42.458Z,35.74
2023-05-25T10:31:42.584Z,35.71
2023-05-25T10:32:42.567Z,35.62
2023-05-25T10:33:42.809Z,35.63
2023-05-25T10:34:42.592Z,35.60
2023-05-25T10:36:01.742Z,35.64
2023-05-25T10:36:43.629Z,35.69
2023-05-25T10:37:42.631Z,35.70
2023-05-25T10:38:42.640Z,35.70
2023-05-25T10:39:42.643Z,35.77
2023-05-25T10:40:42.643Z,35.78
2023-05-25T10:41:42.644Z,35.76
2023-05-25T10:42:42.656Z,35.78
2023-05-25T10:43:42.678Z,35.79
2023-05-25T10:44:42.682Z,35.57
2023-05-25T10:45:43.125Z,35.59
2023-05-25T10:46:42.729Z,35.58
2023-05-25T10:47:42.702Z,35.60
2023-05-25T10:48:42.690Z,35.54
2023-05-25T10:49:42.728Z,35.65
2023-05-25T10:50:42.713Z,35.54
2023-05-25T10:51:42.723Z,35.40
2023-05-25T10:52:42.766Z,35.46
2023-05-25T10:53:42.817Z,35.45
2023-05-25T10:54:42.866Z,35.54
2023-05-25T10:55:43.219Z,35.49
2023-05-25T10:56:44.367Z,35.58
2023-05-25T10:57:43.006Z,35.64
2023-05-25T10:58:43.043Z,35.64
2023-05-25T10:59:43.077Z,35.82
2023-05-25T11:00:43.194Z,35.77
2023-05-25T11:01:43.182Z,35.86
2023-05-25T11:02:43.202Z,35.86
2023-05-25T11:03:43.226Z,36.12
2023-05-25T11:04:43.322Z,36.00
2023-05-25T11:05:43.392Z,36.04
2023-05-25T11:06:43.348Z,36.13
2023-05-25T11:07:43.337Z,36.05
2023-05-25T11:08:43.340Z,36.05
2023-05-25T11:09:43.373Z,36.12
2023-05-25T11:10:43.382Z,36.00
2023-05-25T11:11:43.427Z,35.98
2023-05-25T11:12:43.374Z,36.06
2023-05-25T11:13:43.394Z,35.97
2023-05-25T11:14:43.410Z,36.02
2023-05-25T11:15:43.487Z,35.97
2023-05-25T11:16:43.524Z,35.99
2023-05-25T11:17:43.546Z,36.02
2023-05-25T11:18:43.449Z,36.13
2023-05-25T11:19:43.447Z,36.12
2023-05-25T11:20:43.562Z,36.22
2023-05-25T11:21:43.455Z,36.11
2023-05-25T11:22:43.448Z,36.03
2023-05-25T11:23:43.467Z,36.49
2023-05-25T11:24:43.492Z,36.63
2023-05-25T11:25:43.600Z,36.46
2023-05-25T11:26:43.465Z,36.37
2023-05-25T11:27:43.493Z,36.09
2023-05-25T11:28:43.461Z,35.92
2023-05-25T11:29:43.474Z,35.77
2023-05-25T11:30:43.502Z,35.64
2023-05-25T11:31:43.951Z,35.56
2023-05-25T11:32:43.528Z,35.48
2023-05-25T11:33:43.476Z,35.37
2023-05-25T11:34:43.482Z,35.31
2023-05-25T11:35:43.667Z,35.25
2023-05-25T11:36:43.476Z,35.30
2023-05-25T11:37:43.483Z,35.45
2023-05-25T11:38:45.288Z,35.74
2023-05-25T11:39:44.518Z,35.63
2023-05-25T11:40:43.502Z,35.51
2023-05-25T11:41:43.503Z,35.41
2023-05-25T11:42:43.519Z,35.33
2023-05-25T11:43:43.520Z,35.28
2023-05-25T11:44:43.573Z,35.24
2023-05-25T11:45:43.510Z,35.20
2023-05-25T11:46:43.734Z,35.14
2023-05-25T11:47:43.551Z,35.07
2023-05-25T11:48:43.525Z,35.01
2023-05-25T11:49:43.541Z,34.99
2023-05-25T11:50:43.818Z,36.60
2023-05-25T11:51:43.583Z,38.16
2023-05-25T11:52:43.572Z,38.59
2023-05-25T11:53:43.585Z,38.93
2023-05-25T11:54:43.605Z,38.25
2023-05-25T11:55:43.621Z,40.85
2023-05-25T11:56:43.625Z,41.17
2023-05-25T11:57:43.613Z,40.87
2023-05-25T11:58:43.616Z,40.40
2023-05-25T11:59:43.620Z,39.59
2023-05-25T12:00:43.902Z,40.20
2023-05-25T12:01:43.632Z,39.28
2023-05-25T12:02:43.741Z,38.58
2023-05-25T12:03:43.758Z,38.11
2023-05-25T12:04:43.739Z,37.79
2023-05-25T12:05:43.870Z,37.79
2023-05-25T12:06:43.671Z,37.64
2023-05-25T12:07:43.675Z,37.55
2023-05-25T12:08:43.681Z,37.43
2023-05-25T12:09:43.695Z,37.61
2023-05-25T12:10:43.890Z,37.76
2023-05-25T12:11:43.713Z,37.37
2023-05-25T12:12:43.719Z,37.22
2023-05-25T12:13:43.741Z,36.99
2023-05-25T12:14:43.754Z,36.89
2023-05-25T12:15:44.001Z,36.69
2023-05-25T12:16:43.836Z,36.48
2023-05-25T12:17:43.834Z,36.48
2023-05-25T12:18:43.779Z,36.38
2023-05-25T12:19:43.790Z,36.35
2023-05-25T12:20:43.930Z,36.20
2023-05-25T12:21:43.817Z,36.00
2023-05-25T12:22:43.787Z,36.00
2023-05-25T12:23:43.783Z,35.93
2023-05-25T12:24:43.805Z,35.92
2023-05-25T12:25:50.811Z,35.90
2023-05-25T12:26:44.833Z,35.87
2023-05-25T12:27:43.808Z,35.88
2023-05-25T12:28:43.793Z,35.86
2023-05-25T12:29:43.800Z,35.84
2023-05-25T12:30:43.826Z,35.87
2023-05-25T12:31:43.805Z,35.88
2023-05-25T12:32:43.830Z,35.89
2023-05-25T12:33:43.823Z,35.90
2023-05-25T12:34:43.828Z,35.88
2023-05-25T12:35:44.087Z,35.81
2023-05-25T12:36:43.857Z,35.78
2023-05-25T12:37:43.829Z,35.78
2023-05-25T12:38:43.850Z,35.73
2023-05-25T12:39:43.877Z,35.71
2023-05-25T12:40:44.755Z,35.68
2023-05-25T12:41:43.869Z,35.68
2023-05-25T12:42:43.855Z,35.63
2023-05-25T12:43:43.923Z,35.65
2023-05-25T12:44:43.883Z,35.62
2023-05-25T12:45:43.934Z,35.60
2023-05-25T12:46:43.917Z,35.61
2023-05-25T12:47:43.886Z,35.58
2023-05-25T12:48:43.867Z,35.56
2023-05-25T12:49:43.881Z,35.52
2023-05-25T12:50:43.943Z,35.49
2023-05-25T12:51:43.872Z,35.50
2023-05-25T12:52:43.903Z,35.48